createdAt,value
2018-12-04T00:02:58.574Z,1.00
2018-12-04T00:08:01.945Z,1.00
2018-12-04T00:13:05.238Z,1.00
2018-12-04T00:18:08.538Z,1.00
2018-12-04T00:23:11.843Z,1.00
2018-12-04T00:28:15.183Z,1.00
2018-12-04T00:33:18.535Z,2.00
2018-12-04T00:54:35.773Z,0.00
2018-12-04T01:04:50.787Z,0.00
2018-12-04T01:09:54.336Z,1.00
2018-12-04T01:14:57.765Z,0.20
2018-12-04T01:20:01.259Z,0.50
2018-12-04T01:25:04.601Z,0.00
2018-12-04T01:30:07.903Z,1.20
2018-12-04T01:35:11.196Z,0.25
2018-12-04T01:40:14.489Z,0.60
2018-12-04T01:45:17.799Z,1.00
2018-12-04T01:50:21.118Z,0.60
2018-12-04T01:55:24.447Z,0.00
2018-12-04T02:00:27.747Z,0.25
2018-12-04T02:05:31.300Z,1.00
2018-12-04T02:10:34.590Z,0.40
2018-12-04T02:15:37.883Z,0.20
2018-12-04T02:20:41.204Z,1.00
2018-12-04T02:25:44.495Z,0.75
2018-12-04T02:30:47.803Z,1.00
2018-12-04T02:35:51.135Z,0.75
2018-12-04T02:40:54.454Z,1.00
2018-12-04T02:45:57.738Z,0.60
2018-12-04T02:51:01.048Z,0.75
2018-12-04T02:56:04.370Z,0.00
2018-12-04T03:01:07.798Z,1.00
2018-12-04T03:06:11.312Z,1.00
2018-12-04T03:11:14.605Z,0.00
2018-12-04T03:16:17.928Z,0.00
2018-12-04T03:21:21.226Z,0.00
2018-12-04T03:26:24.539Z,0.80
2018-12-04T03:31:27.903Z,0.00
2018-12-04T03:36:31.212Z,0.00
2018-12-04T03:41:34.540Z,0.00
2018-12-04T03:46:37.858Z,0.00
2018-12-04T03:51:41.180Z,0.00
2018-12-04T03:56:44.479Z,0.00
2018-12-04T04:01:47.813Z,1.00
2018-12-04T04:06:51.120Z,0.00
2018-12-04T04:11:54.437Z,0.00
2018-12-04T04:16:57.735Z,0.00
2018-12-04T04:22:01.082Z,0.00
2018-12-04T04:27:04.371Z,0.00
2018-12-04T04:32:07.687Z,0.20
2018-12-04T04:37:10.981Z,0.25
2018-12-04T04:42:14.277Z,0.00
2018-12-04T04:47:17.614Z,0.00
2018-12-04T04:52:20.955Z,0.00
2018-12-04T04:57:30.745Z,1.00
2018-12-04T05:02:34.046Z,0.00
2018-12-04T05:07:37.352Z,0.00
2018-12-04T05:12:40.693Z,0.00
2018-12-04T05:17:44.022Z,0.80
2018-12-04T05:22:47.328Z,0.25
2018-12-04T05:27:50.631Z,1.00
2018-12-04T05:32:53.943Z,0.00
2018-12-04T05:37:57.251Z,0.00
2018-12-04T05:43:00.562Z,0.60
2018-12-04T05:48:03.913Z,1.00
2018-12-04T05:53:18.583Z,0.00
2018-12-04T05:58:21.885Z,0.00
2018-12-04T06:03:25.203Z,0.25
2018-12-04T06:08:28.527Z,0.75
2018-12-04T06:13:31.845Z,0.00
2018-12-04T06:18:35.135Z,1.00
2018-12-04T06:23:38.484Z,0.00
2018-12-04T06:28:41.801Z,0.50
2018-12-04T06:33:45.172Z,1.00
2018-12-04T06:38:48.502Z,0.00
2018-12-04T06:43:51.843Z,0.00
2018-12-04T06:48:55.168Z,1.00
2018-12-04T06:53:58.493Z,0.50
2018-12-04T06:59:01.802Z,0.20
2018-12-04T07:04:05.157Z,0.00
2018-12-04T07:09:08.816Z,0.25
2018-12-04T07:14:12.124Z,0.80
2018-12-04T07:19:15.417Z,0.00
2018-12-04T07:24:18.748Z,1.00
2018-12-04T07:29:22.697Z,0.00
2018-12-04T07:34:26.042Z,0.00
2018-12-04T07:39:29.361Z,1.00
2018-12-04T07:44:32.694Z,5.00
2018-12-04T07:49:36.007Z,4.00
2018-12-04T07:54:39.319Z,5.75
2018-12-04T07:59:42.643Z,7.00
2018-12-04T08:04:46.007Z,8.00
2018-12-04T08:09:49.308Z,7.00
2018-12-04T08:14:52.650Z,6.20
2018-12-04T08:19:56.027Z,4.50
2018-12-04T08:24:59.346Z,4.00
2018-12-04T08:30:02.666Z,4.00
2018-12-04T08:35:08.516Z,4.00
2018-12-04T08:40:11.975Z,2.00
2018-12-04T08:45:15.464Z,4.00
2018-12-04T08:50:18.812Z,2.60
2018-12-04T08:55:22.110Z,3.00
2018-12-04T09:00:25.435Z,2.00
2018-12-04T09:05:28.755Z,3.00
2018-12-04T09:10:32.070Z,3.00
2018-12-04T09:15:35.411Z,2.60
2018-12-04T09:20:38.787Z,2.60
2018-12-04T09:25:42.277Z,2.00
2018-12-04T09:30:45.598Z,2.75
2018-12-04T09:35:48.917Z,2.75
2018-12-04T09:40:52.243Z,2.00
2018-12-04T09:45:55.581Z,4.00
2018-12-04T09:50:58.923Z,2.00
2018-12-04T09:56:02.255Z,2.25
2018-12-04T10:01:05.574Z,2.00
2018-12-04T10:06:08.887Z,2.20
2018-12-04T10:11:12.191Z,2.00
2018-12-04T10:16:15.533Z,3.00
2018-12-04T10:21:18.860Z,2.50
2018-12-04T10:26:22.201Z,2.00
2018-12-04T10:31:25.518Z,2.75
2018-12-04T10:36:28.827Z,3.00
2018-12-04T10:41:32.150Z,2.00
2018-12-04T10:46:35.475Z,2.00
2018-12-04T10:51:39.064Z,2.00
2018-12-04T10:56:42.367Z,1.00
2018-12-04T11:01:51.024Z,2.00
2018-12-04T11:06:54.351Z,2.00
2018-12-04T11:11:57.707Z,1.00
2018-12-04T11:17:01.029Z,2.00
2018-12-04T11:22:04.397Z,3.00
2018-12-04T11:27:07.752Z,2.00
2018-12-04T11:32:11.087Z,2.00
2018-12-04T11:37:14.422Z,2.00
2018-12-04T11:42:17.747Z,2.00
2018-12-04T11:47:21.076Z,1.80
2018-12-04T11:52:25.179Z,2.00
2018-12-04T11:57:28.491Z,1.00
2018-12-04T12:02:31.819Z,1.00
2018-12-04T12:07:35.154Z,2.00
2018-12-04T12:12:38.491Z,1.50
2018-12-04T12:17:41.835Z,1.20
2018-12-04T12:22:45.288Z,1.25
2018-12-04T12:27:48.623Z,1.80
2018-12-04T12:32:51.978Z,2.00
2018-12-04T12:37:55.310Z,1.50
2018-12-04T12:42:58.651Z,1.20
2018-12-04T12:48:01.982Z,1.00
2018-12-04T12:53:05.935Z,1.75
2018-12-04T12:58:09.248Z,1.00
2018-12-04T13:03:13.233Z,1.00
2018-12-04T13:08:16.571Z,1.25
2018-12-04T13:13:19.911Z,1.00
2018-12-04T13:18:23.242Z,2.00
2018-12-04T13:23:26.575Z,2.25
2018-12-04T13:28:29.934Z,2.00
2018-12-04T13:33:33.417Z,1.00
2018-12-04T13:38:36.794Z,1.60
2018-12-04T13:43:40.141Z,2.00
2018-12-04T13:48:43.486Z,3.00
2018-12-04T13:53:46.861Z,2.00
2018-12-04T13:58:50.194Z,2.00
2018-12-04T14:03:53.533Z,1.75
2018-12-04T14:08:56.853Z,1.00
2018-12-04T14:14:00.216Z,4.50
2018-12-04T14:19:03.535Z,8.00
2018-12-04T14:24:06.977Z,8.75
2018-12-04T14:29:10.384Z,6.25
2018-12-04T14:34:13.728Z,6.50
2018-12-04T14:39:17.098Z,6.00
2018-12-04T14:44:20.685Z,4.75
2018-12-04T14:49:24.111Z,6.20
2018-12-04T14:54:27.575Z,7.00
2018-12-04T14:59:31.004Z,6.50
2018-12-04T15:04:34.347Z,7.00
2018-12-04T15:09:37.811Z,7.00
2018-12-04T15:14:41.160Z,6.00
2018-12-04T15:19:44.671Z,7.00
2018-12-04T15:24:48.090Z,6.50
2018-12-04T15:29:51.407Z,4.50
2018-12-04T15:34:54.752Z,6.00
2018-12-04T15:39:58.132Z,5.50
2018-12-04T15:45:01.502Z,6.25
2018-12-04T15:50:06.878Z,6.33
2018-12-04T15:55:10.385Z,6.00
2018-12-04T16:00:13.849Z,6.00
2018-12-04T16:05:17.180Z,6.25
2018-12-04T16:10:20.512Z,5.20
2018-12-04T16:15:23.812Z,6.00
2018-12-04T16:20:27.132Z,6.25
2018-12-04T16:25:30.460Z,6.00
2018-12-04T16:30:33.789Z,13.80
2018-12-04T16:35:37.106Z,53.00
2018-12-04T16:40:40.444Z,44.40
2018-12-04T16:45:43.823Z,43.20
2018-12-04T16:50:47.245Z,42.00
2018-12-04T16:55:50.669Z,39.80
2018-12-04T17:00:54.001Z,38.25
2018-12-04T17:05:57.339Z,32.75
2018-12-04T17:11:00.654Z,29.00
2018-12-04T17:16:03.966Z,31.20
2018-12-04T17:21:07.321Z,27.25
2018-12-04T17:26:10.663Z,24.20
2018-12-04T17:31:14.051Z,23.00
2018-12-04T17:36:17.378Z,25.50
2018-12-04T17:41:20.694Z,25.40
2018-12-04T17:46:24.021Z,25.75
2018-12-04T17:51:27.351Z,24.00
2018-12-04T17:56:30.716Z,25.50
2018-12-04T18:01:34.106Z,22.00
2018-12-04T18:06:37.439Z,17.25
2018-12-04T18:11:40.757Z,20.60
2018-12-04T18:16:44.071Z,19.00
2018-12-04T18:21:47.754Z,17.80
2018-12-04T18:26:51.070Z,15.25
2018-12-04T18:31:54.382Z,16.00
2018-12-04T18:36:57.703Z,17.40
2018-12-04T18:42:01.002Z,16.40
2018-12-04T18:47:04.352Z,12.00
2018-12-04T18:52:07.670Z,13.40
2018-12-04T18:57:11.003Z,13.40
2018-12-04T19:02:14.411Z,12.00
2018-12-04T19:07:18.684Z,11.00
2018-12-04T19:12:22.016Z,11.00
2018-12-04T19:17:25.350Z,11.00
2018-12-04T19:22:28.675Z,12.00
2018-12-04T19:27:32.010Z,11.00
2018-12-04T19:32:35.986Z,10.50
2018-12-04T19:37:39.287Z,11.25
2018-12-04T19:42:45.414Z,11.75
2018-12-04T19:47:48.751Z,9.25
2018-12-04T19:52:52.451Z,8.50
2018-12-04T19:57:55.795Z,10.00
2018-12-04T20:02:59.119Z,9.75
2018-12-04T20:08:02.527Z,9.00
2018-12-04T20:13:05.866Z,10.00
2018-12-04T20:18:09.197Z,9.20
2018-12-04T20:23:12.546Z,9.00
2018-12-04T20:28:15.937Z,8.00
2018-12-04T20:33:19.333Z,8.75
2018-12-04T20:38:22.882Z,8.75
2018-12-04T20:43:26.343Z,9.75
2018-12-04T20:48:30.001Z,9.00
2018-12-04T20:53:33.412Z,7.00
2018-12-04T20:58:36.732Z,8.00
2018-12-04T21:03:40.074Z,7.25
2018-12-04T21:08:43.429Z,8.00
2018-12-04T21:13:46.849Z,7.00
2018-12-04T21:18:50.164Z,6.80
2018-12-04T21:23:53.499Z,7.25
2018-12-04T21:29:02.304Z,7.20
2018-12-04T21:34:10.971Z,6.00
2018-12-04T21:39:24.571Z,5.00
2018-12-04T21:44:33.377Z,8.00
2018-12-04T21:49:36.720Z,7.00
2018-12-04T21:54:40.064Z,7.25
2018-12-04T21:59:43.374Z,7.25
2018-12-04T22:04:46.729Z,6.80
2018-12-04T22:09:50.080Z,5.40
2018-12-04T22:14:53.398Z,7.50
2018-12-04T22:19:56.715Z,6.20
2018-12-04T22:25:00.049Z,4.20
2018-12-04T22:30:03.904Z,4.75
2018-12-04T22:35:07.415Z,7.60
2018-12-04T22:40:11.115Z,6.50
2018-12-04T22:45:19.868Z,6.80
2018-12-04T22:50:23.214Z,6.80
2018-12-04T22:55:26.547Z,6.20
2018-12-04T23:00:38.074Z,7.00
2018-12-04T23:05:41.377Z,5.00
2018-12-04T23:10:44.702Z,5.25
2018-12-04T23:15:48.038Z,5.00
2018-12-04T23:20:51.379Z,4.00
2018-12-04T23:25:54.897Z,4.00
2018-12-04T23:30:58.210Z,6.50
2018-12-04T23:36:01.551Z,3.75
2018-12-04T23:41:04.851Z,7.25
2018-12-04T23:46:08.186Z,6.50
2018-12-04T23:51:11.534Z,7.00
2018-12-04T23:56:14.842Z,5.00
